sensor_id;sensor_type;location;lat;lon;timestamp;P1;durP1;ratioP1;P2;durP2;ratioP2
19903;SDS011;10114;50.970;4.962;2022-12-17T00:02:40;35.13;;;16.00;;
19903;SDS011;10114;50.970;4.962;2022-12-17T00:05:24;31.48;;;15.80;;
19903;SDS011;10114;50.970;4.962;2022-12-17T00:08:08;33.20;;;15.32;;
19903;SDS011;10114;50.970;4.962;2022-12-17T00:10:53;40.30;;;16.17;;
19903;SDS011;10114;50.970;4.962;2022-12-17T00:13:40;31.48;;;14.95;;
19903;SDS011;10114;50.970;4.962;2022-12-17T00:16:25;35.63;;;15.60;;
19903;SDS011;10114;50.970;4.962;2022-12-17T00:19:09;28.42;;;13.82;;
19903;SDS011;10114;50.970;4.962;2022-12-17T00:21:54;33.50;;;15.50;;
19903;SDS011;10114;50.970;4.962;2022-12-17T00:24:38;34.90;;;15.55;;
19903;SDS011;10114;50.970;4.962;2022-12-17T00:27:23;38.97;;;15.70;;
19903;SDS011;10114;50.970;4.962;2022-12-17T00:30:07;40.08;;;16.75;;
19903;SDS011;10114;50.970;4.962;2022-12-17T00:32:52;33.92;;;16.45;;
19903;SDS011;10114;50.970;4.962;2022-12-17T00:35:37;35.15;;;17.52;;
19903;SDS011;10114;50.970;4.962;2022-12-17T00:38:21;39.30;;;18.17;;
19903;SDS011;10114;50.970;4.962;2022-12-17T00:41:06;42.22;;;19.23;;
19903;SDS011;10114;50.970;4.962;2022-12-17T00:43:51;49.33;;;23.60;;
19903;SDS011;10114;50.970;4.962;2022-12-17T00:46:35;42.55;;;21.27;;
19903;SDS011;10114;50.970;4.962;2022-12-17T00:49:20;52.08;;;20.52;;
19903;SDS011;10114;50.970;4.962;2022-12-17T00:52:04;48.75;;;19.20;;
19903;SDS011;10114;50.970;4.962;2022-12-17T00:54:49;46.67;;;18.98;;
19903;SDS011;10114;50.970;4.962;2022-12-17T00:57:33;46.70;;;18.15;;
19903;SDS011;10114;50.970;4.962;2022-12-17T01:00:18;38.30;;;17.08;;
19903;SDS011;10114;50.970;4.962;2022-12-17T01:03:03;41.28;;;17.33;;
19903;SDS011;10114;50.970;4.962;2022-12-17T01:05:48;46.38;;;17.23;;
19903;SDS011;10114;50.970;4.962;2022-12-17T01:08:33;40.15;;;17.70;;
19903;SDS011;10114;50.970;4.962;2022-12-17T01:11:17;37.42;;;17.38;;
19903;SDS011;10114;50.970;4.962;2022-12-17T01:14:02;39.05;;;17.23;;
19903;SDS011;10114;50.970;4.962;2022-12-17T01:16:47;38.90;;;16.33;;
19903;SDS011;10114;50.970;4.962;2022-12-17T01:19:31;48.78;;;19.80;;
19903;SDS011;10114;50.970;4.962;2022-12-17T01:22:20;42.67;;;19.25;;
19903;SDS011;10114;50.970;4.962;2022-12-17T01:25:05;53.60;;;22.20;;
19903;SDS011;10114;50.970;4.962;2022-12-17T01:27:50;55.38;;;21.70;;
19903;SDS011;10114;50.970;4.962;2022-12-17T01:30:36;40.50;;;17.80;;
19903;SDS011;10114;50.970;4.962;2022-12-17T01:33:21;47.97;;;19.27;;
19903;SDS011;10114;50.970;4.962;2022-12-17T01:36:05;59.58;;;23.55;;
19903;SDS011;10114;50.970;4.962;2022-12-17T01:38:50;70.13;;;27.70;;
19903;SDS011;10114;50.970;4.962;2022-12-17T01:41:34;60.55;;;23.45;;
19903;SDS011;10114;50.970;4.962;2022-12-17T01:47:23;45.08;;;17.65;;
19903;SDS011;10114;50.970;4.962;2022-12-17T01:50:07;44.00;;;17.38;;
19903;SDS011;10114;50.970;4.962;2022-12-17T01:52:53;49.20;;;19.00;;
19903;SDS011;10114;50.970;4.962;2022-12-17T01:55:38;45.63;;;18.80;;
19903;SDS011;10114;50.970;4.962;2022-12-17T01:58:24;54.93;;;22.07;;
19903;SDS011;10114;50.970;4.962;2022-12-17T02:01:08;46.55;;;19.75;;
19903;SDS011;10114;50.970;4.962;2022-12-17T02:03:53;57.40;;;21.73;;
19903;SDS011;10114;50.970;4.962;2022-12-17T02:06:38;40.22;;;17.45;;
19903;SDS011;10114;50.970;4.962;2022-12-17T02:09:33;37.90;;;17.38;;
19903;SDS011;10114;50.970;4.962;2022-12-17T02:12:22;37.85;;;16.00;;
19903;SDS011;10114;50.970;4.962;2022-12-17T02:15:11;40.15;;;16.45;;
19903;SDS011;10114;50.970;4.962;2022-12-17T02:17:58;32.13;;;15.53;;
19903;SDS011;10114;50.970;4.962;2022-12-17T02:20:46;34.50;;;15.98;;
19903;SDS011;10114;50.970;4.962;2022-12-17T02:23:37;41.65;;;17.25;;
19903;SDS011;10114;50.970;4.962;2022-12-17T02:29:37;40.58;;;18.23;;
19903;SDS011;10114;50.970;4.962;2022-12-17T02:32:22;38.53;;;17.47;;
19903;SDS011;10114;50.970;4.962;2022-12-17T02:35:12;45.07;;;16.80;;
19903;SDS011;10114;50.970;4.962;2022-12-17T02:37:57;46.08;;;18.58;;
19903;SDS011;10114;50.970;4.962;2022-12-17T02:40:42;43.17;;;18.33;;
19903;SDS011;10114;50.970;4.962;2022-12-17T02:43:29;48.83;;;19.87;;
19903;SDS011;10114;50.970;4.962;2022-12-17T02:46:14;38.93;;;17.73;;
19903;SDS011;10114;50.970;4.962;2022-12-17T02:49:03;49.43;;;20.03;;
19903;SDS011;10114;50.970;4.962;2022-12-17T02:51:48;44.43;;;17.73;;
19903;SDS011;10114;50.970;4.962;2022-12-17T02:54:34;45.33;;;20.27;;
19903;SDS011;10114;50.970;4.962;2022-12-17T02:57:18;48.07;;;19.27;;
19903;SDS011;10114;50.970;4.962;2022-12-17T03:00:04;43.90;;;19.13;;
19903;SDS011;10114;50.970;4.962;2022-12-17T03:02:48;42.97;;;19.00;;
19903;SDS011;10114;50.970;4.962;2022-12-17T03:05:33;45.53;;;19.93;;
19903;SDS011;10114;50.970;4.962;2022-12-17T03:08:18;51.50;;;20.13;;
19903;SDS011;10114;50.970;4.962;2022-12-17T03:11:02;45.07;;;19.67;;
19903;SDS011;10114;50.970;4.962;2022-12-17T03:13:47;44.20;;;19.23;;
19903;SDS011;10114;50.970;4.962;2022-12-17T03:16:31;49.43;;;20.50;;
19903;SDS011;10114;50.970;4.962;2022-12-17T03:19:16;45.00;;;19.90;;
19903;SDS011;10114;50.970;4.962;2022-12-17T03:22:00;46.30;;;18.63;;
19903;SDS011;10114;50.970;4.962;2022-12-17T03:24:45;42.40;;;20.03;;
19903;SDS011;10114;50.970;4.962;2022-12-17T03:27:29;46.90;;;18.33;;
19903;SDS011;10114;50.970;4.962;2022-12-17T03:30:14;45.73;;;19.60;;
19903;SDS011;10114;50.970;4.962;2022-12-17T03:32:58;45.10;;;19.00;;
19903;SDS011;10114;50.970;4.962;2022-12-17T03:35:43;50.43;;;18.80;;
19903;SDS011;10114;50.970;4.962;2022-12-17T03:38:27;41.87;;;17.23;;
19903;SDS011;10114;50.970;4.962;2022-12-17T03:41:12;39.20;;;18.50;;
19903;SDS011;10114;50.970;4.962;2022-12-17T03:43:57;48.67;;;19.37;;
19903;SDS011;10114;50.970;4.962;2022-12-17T03:46:41;45.53;;;18.33;;
19903;SDS011;10114;50.970;4.962;2022-12-17T03:49:26;45.43;;;18.97;;
19903;SDS011;10114;50.970;4.962;2022-12-17T03:52:10;42.77;;;18.50;;
19903;SDS011;10114;50.970;4.962;2022-12-17T03:54:55;38.87;;;17.17;;
19903;SDS011;10114;50.970;4.962;2022-12-17T03:57:39;46.67;;;18.50;;
19903;SDS011;10114;50.970;4.962;2022-12-17T04:00:24;49.53;;;19.53;;
19903;SDS011;10114;50.970;4.962;2022-12-17T04:03:08;43.57;;;18.53;;
19903;SDS011;10114;50.970;4.962;2022-12-17T04:05:53;52.00;;;18.70;;
19903;SDS011;10114;50.970;4.962;2022-12-17T04:08:37;40.80;;;17.83;;
19903;SDS011;10114;50.970;4.962;2022-12-17T04:11:22;46.95;;;20.55;;
19903;SDS011;10114;50.970;4.962;2022-12-17T04:14:07;41.50;;;19.40;;
19903;SDS011;10114;50.970;4.962;2022-12-17T04:16:51;43.40;;;19.27;;
19903;SDS011;10114;50.970;4.962;2022-12-17T04:19:35;46.30;;;20.27;;
19903;SDS011;10114;50.970;4.962;2022-12-17T04:22:20;42.33;;;17.83;;
19903;SDS011;10114;50.970;4.962;2022-12-17T04:25:04;45.15;;;18.35;;
19903;SDS011;10114;50.970;4.962;2022-12-17T04:27:49;46.17;;;18.88;;
19903;SDS011;10114;50.970;4.962;2022-12-17T04:30:33;43.80;;;18.47;;
19903;SDS011;10114;50.970;4.962;2022-12-17T04:33:18;45.90;;;18.37;;
19903;SDS011;10114;50.970;4.962;2022-12-17T04:36:02;50.83;;;20.00;;
19903;SDS011;10114;50.970;4.962;2022-12-17T04:38:47;53.07;;;19.80;;
19903;SDS011;10114;50.970;4.962;2022-12-17T04:41:32;53.70;;;20.27;;
19903;SDS011;10114;50.970;4.962;2022-12-17T04:44:16;48.27;;;20.90;;
19903;SDS011;10114;50.970;4.962;2022-12-17T04:47:00;61.20;;;22.67;;
19903;SDS011;10114;50.970;4.962;2022-12-17T04:49:45;50.33;;;19.37;;
19903;SDS011;10114;50.970;4.962;2022-12-17T04:52:29;46.53;;;17.87;;
19903;SDS011;10114;50.970;4.962;2022-12-17T04:55:14;49.97;;;19.77;;
19903;SDS011;10114;50.970;4.962;2022-12-17T04:58:02;39.60;;;16.83;;
19903;SDS011;10114;50.970;4.962;2022-12-17T05:00:49;37.37;;;19.03;;
19903;SDS011;10114;50.970;4.962;2022-12-17T05:03:34;46.07;;;18.40;;
19903;SDS011;10114;50.970;4.962;2022-12-17T05:06:18;55.07;;;20.20;;
19903;SDS011;10114;50.970;4.962;2022-12-17T05:09:03;50.63;;;20.37;;
19903;SDS011;10114;50.970;4.962;2022-12-17T05:11:48;50.70;;;18.00;;
19903;SDS011;10114;50.970;4.962;2022-12-17T05:14:32;53.77;;;20.83;;
19903;SDS011;10114;50.970;4.962;2022-12-17T05:17:17;57.17;;;18.70;;
19903;SDS011;10114;50.970;4.962;2022-12-17T05:20:01;50.40;;;19.63;;
19903;SDS011;10114;50.970;4.962;2022-12-17T05:22:46;49.93;;;18.93;;
19903;SDS011;10114;50.970;4.962;2022-12-17T05:25:31;52.00;;;20.93;;
19903;SDS011;10114;50.970;4.962;2022-12-17T05:28:15;50.23;;;21.53;;
19903;SDS011;10114;50.970;4.962;2022-12-17T05:31:00;46.50;;;19.90;;
19903;SDS011;10114;50.970;4.962;2022-12-17T05:33:45;52.37;;;20.27;;
19903;SDS011;10114;50.970;4.962;2022-12-17T05:36:29;57.17;;;21.13;;
19903;SDS011;10114;50.970;4.962;2022-12-17T05:39:14;53.13;;;21.47;;
19903;SDS011;10114;50.970;4.962;2022-12-17T05:41:58;58.53;;;21.83;;
19903;SDS011;10114;50.970;4.962;2022-12-17T05:44:43;47.00;;;19.23;;
19903;SDS011;10114;50.970;4.962;2022-12-17T05:47:29;51.53;;;21.77;;
19903;SDS011;10114;50.970;4.962;2022-12-17T05:50:24;52.20;;;19.57;;
19903;SDS011;10114;50.970;4.962;2022-12-17T05:53:09;50.87;;;19.63;;
19903;SDS011;10114;50.970;4.962;2022-12-17T05:55:54;54.77;;;22.40;;
19903;SDS011;10114;50.970;4.962;2022-12-17T05:58:38;54.80;;;20.30;;
19903;SDS011;10114;50.970;4.962;2022-12-17T06:01:23;46.77;;;17.73;;
19903;SDS011;10114;50.970;4.962;2022-12-17T06:04:08;58.37;;;20.53;;
19903;SDS011;10114;50.970;4.962;2022-12-17T06:06:53;62.13;;;21.00;;
19903;SDS011;10114;50.970;4.962;2022-12-17T06:09:37;54.67;;;19.50;;
19903;SDS011;10114;50.970;4.962;2022-12-17T06:12:22;48.30;;;18.83;;
19903;SDS011;10114;50.970;4.962;2022-12-17T06:15:07;61.67;;;20.97;;
19903;SDS011;10114;50.970;4.962;2022-12-17T06:17:52;56.47;;;20.20;;
19903;SDS011;10114;50.970;4.962;2022-12-17T06:20:37;55.83;;;17.47;;
19903;SDS011;10114;50.970;4.962;2022-12-17T06:23:21;67.17;;;20.67;;
19903;SDS011;10114;50.970;4.962;2022-12-17T06:26:06;52.50;;;17.17;;
19903;SDS011;10114;50.970;4.962;2022-12-17T06:28:50;58.53;;;19.17;;
19903;SDS011;10114;50.970;4.962;2022-12-17T06:31:35;41.93;;;15.90;;
19903;SDS011;10114;50.970;4.962;2022-12-17T06:34:20;58.47;;;20.90;;
19903;SDS011;10114;50.970;4.962;2022-12-17T06:37:04;54.13;;;17.50;;
19903;SDS011;10114;50.970;4.962;2022-12-17T06:39:49;58.07;;;20.80;;
19903;SDS011;10114;50.970;4.962;2022-12-17T06:42:33;61.73;;;16.07;;
19903;SDS011;10114;50.970;4.962;2022-12-17T06:45:18;56.67;;;16.23;;
19903;SDS011;10114;50.970;4.962;2022-12-17T06:48:03;37.20;;;14.10;;
19903;SDS011;10114;50.970;4.962;2022-12-17T06:50:48;56.70;;;17.77;;
19903;SDS011;10114;50.970;4.962;2022-12-17T06:53:33;56.47;;;15.37;;
19903;SDS011;10114;50.970;4.962;2022-12-17T06:56:18;38.97;;;13.17;;
19903;SDS011;10114;50.970;4.962;2022-12-17T06:59:02;67.97;;;14.40;;
19903;SDS011;10114;50.970;4.962;2022-12-17T07:01:47;55.03;;;16.70;;
19903;SDS011;10114;50.970;4.962;2022-12-17T07:04:31;33.03;;;10.40;;
19903;SDS011;10114;50.970;4.962;2022-12-17T07:07:16;46.17;;;16.20;;
19903;SDS011;10114;50.970;4.962;2022-12-17T07:10:08;54.27;;;17.13;;
19903;SDS011;10114;50.970;4.962;2022-12-17T07:12:53;65.27;;;17.73;;
19903;SDS011;10114;50.970;4.962;2022-12-17T07:15:37;47.10;;;17.73;;
19903;SDS011;10114;50.970;4.962;2022-12-17T07:18:22;59.23;;;16.93;;
19903;SDS011;10114;50.970;4.962;2022-12-17T07:21:06;47.67;;;16.33;;
19903;SDS011;10114;50.970;4.962;2022-12-17T07:23:51;65.73;;;19.10;;
19903;SDS011;10114;50.970;4.962;2022-12-17T07:26:35;66.17;;;22.13;;
19903;SDS011;10114;50.970;4.962;2022-12-17T07:29:20;64.67;;;19.70;;
19903;SDS011;10114;50.970;4.962;2022-12-17T07:32:06;40.70;;;15.50;;
19903;SDS011;10114;50.970;4.962;2022-12-17T07:34:51;40.07;;;15.80;;
19903;SDS011;10114;50.970;4.962;2022-12-17T07:37:35;65.10;;;18.97;;
19903;SDS011;10114;50.970;4.962;2022-12-17T07:40:19;85.33;;;22.33;;
19903;SDS011;10114;50.970;4.962;2022-12-17T07:43:11;71.90;;;21.50;;
19903;SDS011;10114;50.970;4.962;2022-12-17T07:45:55;67.30;;;21.73;;
19903;SDS011;10114;50.970;4.962;2022-12-17T07:48:40;76.17;;;22.40;;
19903;SDS011;10114;50.970;4.962;2022-12-17T07:51:24;64.07;;;21.53;;
19903;SDS011;10114;50.970;4.962;2022-12-17T07:54:09;82.40;;;27.03;;
19903;SDS011;10114;50.970;4.962;2022-12-17T07:56:53;76.03;;;22.33;;
19903;SDS011;10114;50.970;4.962;2022-12-17T07:59:38;72.83;;;23.70;;
19903;SDS011;10114;50.970;4.962;2022-12-17T08:02:22;69.00;;;22.27;;
19903;SDS011;10114;50.970;4.962;2022-12-17T08:05:07;77.03;;;24.90;;
19903;SDS011;10114;50.970;4.962;2022-12-17T08:07:52;70.90;;;20.97;;
19903;SDS011;10114;50.970;4.962;2022-12-17T08:10:37;67.18;;;22.23;;
19903;SDS011;10114;50.970;4.962;2022-12-17T08:13:21;72.73;;;25.53;;
19903;SDS011;10114;50.970;4.962;2022-12-17T08:16:06;78.00;;;22.30;;
19903;SDS011;10114;50.970;4.962;2022-12-17T08:18:51;73.37;;;21.80;;
19903;SDS011;10114;50.970;4.962;2022-12-17T08:21:35;83.28;;;27.00;;
19903;SDS011;10114;50.970;4.962;2022-12-17T08:24:20;81.18;;;25.58;;
19903;SDS011;10114;50.970;4.962;2022-12-17T08:27:04;70.50;;;22.13;;
19903;SDS011;10114;50.970;4.962;2022-12-17T08:29:49;76.53;;;25.80;;
19903;SDS011;10114;50.970;4.962;2022-12-17T08:32:33;86.75;;;26.60;;
19903;SDS011;10114;50.970;4.962;2022-12-17T08:35:18;79.55;;;26.52;;
19903;SDS011;10114;50.970;4.962;2022-12-17T08:38:03;77.07;;;26.20;;
19903;SDS011;10114;50.970;4.962;2022-12-17T08:40:48;94.05;;;26.95;;
19903;SDS011;10114;50.970;4.962;2022-12-17T08:43:33;80.65;;;23.95;;
19903;SDS011;10114;50.970;4.962;2022-12-17T08:46:17;87.80;;;25.17;;
19903;SDS011;10114;50.970;4.962;2022-12-17T08:49:02;92.13;;;27.55;;
19903;SDS011;10114;50.970;4.962;2022-12-17T08:51:46;84.70;;;24.43;;
19903;SDS011;10114;50.970;4.962;2022-12-17T08:54:31;84.13;;;26.70;;
19903;SDS011;10114;50.970;4.962;2022-12-17T08:57:15;84.90;;;25.58;;
19903;SDS011;10114;50.970;4.962;2022-12-17T08:59:59;84.35;;;28.27;;
19903;SDS011;10114;50.970;4.962;2022-12-17T09:02:44;63.83;;;22.50;;
19903;SDS011;10114;50.970;4.962;2022-12-17T09:05:28;84.38;;;24.00;;
19903;SDS011;10114;50.970;4.962;2022-12-17T09:08:13;65.53;;;19.85;;
19903;SDS011;10114;50.970;4.962;2022-12-17T09:10:58;75.05;;;19.95;;
19903;SDS011;10114;50.970;4.962;2022-12-17T09:13:43;78.30;;;25.42;;
19903;SDS011;10114;50.970;4.962;2022-12-17T09:16:27;66.43;;;20.65;;
19903;SDS011;10114;50.970;4.962;2022-12-17T09:19:12;72.30;;;21.88;;
19903;SDS011;10114;50.970;4.962;2022-12-17T09:21:57;66.25;;;19.27;;
19903;SDS011;10114;50.970;4.962;2022-12-17T09:24:41;78.15;;;23.02;;
19903;SDS011;10114;50.970;4.962;2022-12-17T09:27:26;90.82;;;24.23;;
19903;SDS011;10114;50.970;4.962;2022-12-17T09:30:10;82.95;;;26.60;;
19903;SDS011;10114;50.970;4.962;2022-12-17T09:32:55;92.57;;;25.52;;
19903;SDS011;10114;50.970;4.962;2022-12-17T09:35:40;82.15;;;22.92;;
19903;SDS011;10114;50.970;4.962;2022-12-17T09:38:24;111.88;;;25.10;;
19903;SDS011;10114;50.970;4.962;2022-12-17T09:41:14;81.13;;;20.80;;
19903;SDS011;10114;50.970;4.962;2022-12-17T09:47:05;101.32;;;28.30;;
19903;SDS011;10114;50.970;4.962;2022-12-17T09:49:51;85.68;;;24.60;;
19903;SDS011;10114;50.970;4.962;2022-12-17T09:52:40;81.68;;;27.17;;
19903;SDS011;10114;50.970;4.962;2022-12-17T09:55:47;102.13;;;27.65;;
19903;SDS011;10114;50.970;4.962;2022-12-17T09:58:30;137.07;;;28.60;;
19903;SDS011;10114;50.970;4.962;2022-12-17T10:01:22;107.00;;;25.90;;
19903;SDS011;10114;50.970;4.962;2022-12-17T10:04:14;93.22;;;26.60;;
19903;SDS011;10114;50.970;4.962;2022-12-17T10:07:00;83.40;;;25.42;;
19903;SDS011;10114;50.970;4.962;2022-12-17T10:09:48;101.30;;;25.77;;
19903;SDS011;10114;50.970;4.962;2022-12-17T10:12:33;94.38;;;25.85;;
19903;SDS011;10114;50.970;4.962;2022-12-17T10:15:34;82.90;;;26.67;;
19903;SDS011;10114;50.970;4.962;2022-12-17T10:18:18;92.47;;;26.48;;
19903;SDS011;10114;50.970;4.962;2022-12-17T10:21:04;96.78;;;24.73;;
19903;SDS011;10114;50.970;4.962;2022-12-17T10:23:49;102.80;;;24.02;;
19903;SDS011;10114;50.970;4.962;2022-12-17T10:26:34;71.45;;;23.02;;
19903;SDS011;10114;50.970;4.962;2022-12-17T10:29:20;79.47;;;24.42;;
19903;SDS011;10114;50.970;4.962;2022-12-17T10:34:52;149.20;;;26.50;;
19903;SDS011;10114;50.970;4.962;2022-12-17T10:37:37;114.45;;;23.63;;
19903;SDS011;10114;50.970;4.962;2022-12-17T10:40:23;97.50;;;22.27;;
19903;SDS011;10114;50.970;4.962;2022-12-17T10:46:05;80.78;;;23.05;;
19903;SDS011;10114;50.970;4.962;2022-12-17T10:48:50;104.68;;;23.70;;
19903;SDS011;10114;50.970;4.962;2022-12-17T10:51:35;104.90;;;23.13;;
19903;SDS011;10114;50.970;4.962;2022-12-17T10:54:31;77.30;;;19.45;;
19903;SDS011;10114;50.970;4.962;2022-12-17T11:03:01;76.35;;;23.98;;
19903;SDS011;10114;50.970;4.962;2022-12-17T11:05:46;90.13;;;24.25;;
19903;SDS011;10114;50.970;4.962;2022-12-17T11:08:32;97.55;;;23.58;;
19903;SDS011;10114;50.970;4.962;2022-12-17T11:11:17;157.90;;;24.60;;
19903;SDS011;10114;50.970;4.962;2022-12-17T11:14:02;129.73;;;24.98;;
19903;SDS011;10114;50.970;4.962;2022-12-17T11:16:50;79.15;;;23.58;;
19903;SDS011;10114;50.970;4.962;2022-12-17T11:19:37;102.88;;;21.75;;
19903;SDS011;10114;50.970;4.962;2022-12-17T11:22:29;90.80;;;23.10;;
19903;SDS011;10114;50.970;4.962;2022-12-17T11:28:17;114.32;;;22.25;;
19903;SDS011;10114;50.970;4.962;2022-12-17T11:34:01;70.45;;;21.08;;
19903;SDS011;10114;50.970;4.962;2022-12-17T11:36:54;83.40;;;24.60;;
19903;SDS011;10114;50.970;4.962;2022-12-17T11:39:46;97.93;;;23.90;;
19903;SDS011;10114;50.970;4.962;2022-12-17T11:42:37;71.85;;;24.48;;
19903;SDS011;10114;50.970;4.962;2022-12-17T11:48:35;94.57;;;26.50;;
19903;SDS011;10114;50.970;4.962;2022-12-17T11:51:28;82.88;;;23.27;;
19903;SDS011;10114;50.970;4.962;2022-12-17T12:00:22;81.03;;;23.90;;
19903;SDS011;10114;50.970;4.962;2022-12-17T12:09:16;118.90;;;24.50;;
19903;SDS011;10114;50.970;4.962;2022-12-17T12:15:16;102.95;;;24.67;;
19903;SDS011;10114;50.970;4.962;2022-12-17T12:29:34;112.75;;;23.55;;
19903;SDS011;10114;50.970;4.962;2022-12-17T12:32:25;174.93;;;25.75;;
19903;SDS011;10114;50.970;4.962;2022-12-17T12:35:14;135.20;;;23.98;;
19903;SDS011;10114;50.970;4.962;2022-12-17T12:38:00;116.63;;;22.60;;
19903;SDS011;10114;50.970;4.962;2022-12-17T12:40:46;119.18;;;24.13;;
19903;SDS011;10114;50.970;4.962;2022-12-17T12:43:36;140.35;;;24.70;;
19903;SDS011;10114;50.970;4.962;2022-12-17T12:46:43;105.97;;;23.30;;
19903;SDS011;10114;50.970;4.962;2022-12-17T12:49:32;189.70;;;27.13;;
19903;SDS011;10114;50.970;4.962;2022-12-17T12:52:21;106.78;;;26.35;;
19903;SDS011;10114;50.970;4.962;2022-12-17T12:55:07;96.95;;;27.52;;
19903;SDS011;10114;50.970;4.962;2022-12-17T12:57:59;85.88;;;26.10;;
19903;SDS011;10114;50.970;4.962;2022-12-17T13:11:42;96.03;;;25.33;;
19903;SDS011;10114;50.970;4.962;2022-12-17T13:14:14;110.47;;;26.38;;
19903;SDS011;10114;50.970;4.962;2022-12-17T13:21:42;80.30;;;22.67;;
19903;SDS011;10114;50.970;4.962;2022-12-17T13:24:09;84.38;;;23.95;;
19903;SDS011;10114;50.970;4.962;2022-12-17T13:29:12;81.80;;;24.38;;
19903;SDS011;10114;50.970;4.962;2022-12-17T13:34:41;102.57;;;22.35;;
19903;SDS011;10114;50.970;4.962;2022-12-17T13:42:27;61.08;;;20.75;;
19903;SDS011;10114;50.970;4.962;2022-12-17T13:44:55;61.85;;;21.42;;
19903;SDS011;10114;50.970;4.962;2022-12-17T13:47:23;102.97;;;22.85;;
19903;SDS011;10114;50.970;4.962;2022-12-17T13:49:54;69.80;;;23.60;;
19903;SDS011;10114;50.970;4.962;2022-12-17T13:52:22;59.78;;;19.60;;
19903;SDS011;10114;50.970;4.962;2022-12-17T13:54:49;128.50;;;23.75;;
19903;SDS011;10114;50.970;4.962;2022-12-17T13:57:20;59.92;;;19.13;;
19903;SDS011;10114;50.970;4.962;2022-12-17T13:59:54;59.72;;;20.33;;
19903;SDS011;10114;50.970;4.962;2022-12-17T14:02:25;65.78;;;18.90;;
19903;SDS011;10114;50.970;4.962;2022-12-17T14:04:52;84.85;;;20.38;;
19903;SDS011;10114;50.970;4.962;2022-12-17T14:07:18;90.38;;;22.85;;
19903;SDS011;10114;50.970;4.962;2022-12-17T14:09:44;86.90;;;23.10;;
19903;SDS011;10114;50.970;4.962;2022-12-17T14:12:11;74.32;;;22.95;;
19903;SDS011;10114;50.970;4.962;2022-12-17T14:14:49;83.82;;;25.15;;
19903;SDS011;10114;50.970;4.962;2022-12-17T14:17:20;91.35;;;26.85;;
19903;SDS011;10114;50.970;4.962;2022-12-17T14:20:03;67.68;;;22.48;;
19903;SDS011;10114;50.970;4.962;2022-12-17T14:22:37;79.43;;;23.73;;
19903;SDS011;10114;50.970;4.962;2022-12-17T14:25:05;70.18;;;21.98;;
19903;SDS011;10114;50.970;4.962;2022-12-17T14:27:36;62.78;;;20.88;;
19903;SDS011;10114;50.970;4.962;2022-12-17T14:30:18;58.67;;;20.42;;
19903;SDS011;10114;50.970;4.962;2022-12-17T14:32:44;66.05;;;20.75;;
19903;SDS011;10114;50.970;4.962;2022-12-17T14:35:21;53.05;;;18.33;;
19903;SDS011;10114;50.970;4.962;2022-12-17T14:37:47;115.53;;;23.05;;
19903;SDS011;10114;50.970;4.962;2022-12-17T14:40:13;141.85;;;23.58;;
19903;SDS011;10114;50.970;4.962;2022-12-17T14:42:40;96.05;;;24.02;;
19903;SDS011;10114;50.970;4.962;2022-12-17T14:45:27;85.63;;;20.60;;
19903;SDS011;10114;50.970;4.962;2022-12-17T14:47:56;73.65;;;19.25;;
19903;SDS011;10114;50.970;4.962;2022-12-17T14:50:24;75.15;;;20.02;;
19903;SDS011;10114;50.970;4.962;2022-12-17T14:52:51;70.88;;;21.38;;
19903;SDS011;10114;50.970;4.962;2022-12-17T14:58:20;87.07;;;23.02;;
19903;SDS011;10114;50.970;4.962;2022-12-17T15:00:49;149.70;;;26.25;;
19903;SDS011;10114;50.970;4.962;2022-12-17T15:03:17;77.53;;;20.33;;
19903;SDS011;10114;50.970;4.962;2022-12-17T15:05:45;56.20;;;20.95;;
19903;SDS011;10114;50.970;4.962;2022-12-17T15:08:12;82.35;;;22.25;;
19903;SDS011;10114;50.970;4.962;2022-12-17T15:10:39;66.70;;;19.90;;
19903;SDS011;10114;50.970;4.962;2022-12-17T15:13:08;60.67;;;21.80;;
19903;SDS011;10114;50.970;4.962;2022-12-17T15:15:34;70.25;;;20.10;;
19903;SDS011;10114;50.970;4.962;2022-12-17T15:18:00;98.57;;;20.27;;
19903;SDS011;10114;50.970;4.962;2022-12-17T15:20:26;55.05;;;18.00;;
19903;SDS011;10114;50.970;4.962;2022-12-17T15:22:52;70.53;;;19.73;;
19903;SDS011;10114;50.970;4.962;2022-12-17T15:25:18;100.45;;;20.38;;
19903;SDS011;10114;50.970;4.962;2022-12-17T15:27:44;104.85;;;20.40;;
19903;SDS011;10114;50.970;4.962;2022-12-17T15:30:17;88.05;;;20.95;;
19903;SDS011;10114;50.970;4.962;2022-12-17T15:32:44;74.55;;;20.55;;
19903;SDS011;10114;50.970;4.962;2022-12-17T15:35:10;82.70;;;21.10;;
19903;SDS011;10114;50.970;4.962;2022-12-17T15:37:36;92.10;;;22.63;;
19903;SDS011;10114;50.970;4.962;2022-12-17T15:40:03;92.75;;;20.60;;
19903;SDS011;10114;50.970;4.962;2022-12-17T15:42:29;62.55;;;18.25;;
19903;SDS011;10114;50.970;4.962;2022-12-17T15:45:14;70.72;;;18.25;;
19903;SDS011;10114;50.970;4.962;2022-12-17T15:47:40;78.78;;;18.02;;
19903;SDS011;10114;50.970;4.962;2022-12-17T15:50:06;106.78;;;20.55;;
19903;SDS011;10114;50.970;4.962;2022-12-17T15:52:32;104.32;;;22.10;;
19903;SDS011;10114;50.970;4.962;2022-12-17T15:54:58;72.35;;;20.60;;
19903;SDS011;10114;50.970;4.962;2022-12-17T15:57:24;79.07;;;20.88;;
19903;SDS011;10114;50.970;4.962;2022-12-17T15:59:50;148.18;;;24.67;;
19903;SDS011;10114;50.970;4.962;2022-12-17T16:02:16;93.15;;;21.75;;
19903;SDS011;10114;50.970;4.962;2022-12-17T16:04:42;86.15;;;20.02;;
19903;SDS011;10114;50.970;4.962;2022-12-17T16:07:08;73.45;;;17.08;;
19903;SDS011;10114;50.970;4.962;2022-12-17T16:09:34;129.10;;;21.77;;
19903;SDS011;10114;50.970;4.962;2022-12-17T16:12:00;69.30;;;18.38;;
19903;SDS011;10114;50.970;4.962;2022-12-17T16:14:26;93.97;;;19.02;;
19903;SDS011;10114;50.970;4.962;2022-12-17T16:16:52;112.78;;;23.75;;
19903;SDS011;10114;50.970;4.962;2022-12-17T16:19:19;74.32;;;21.25;;
19903;SDS011;10114;50.970;4.962;2022-12-17T16:21:45;87.72;;;19.25;;
19903;SDS011;10114;50.970;4.962;2022-12-17T16:24:11;178.30;;;24.70;;
19903;SDS011;10114;50.970;4.962;2022-12-17T16:26:37;143.73;;;23.67;;
19903;SDS011;10114;50.970;4.962;2022-12-17T16:29:03;55.50;;;17.77;;
19903;SDS011;10114;50.970;4.962;2022-12-17T16:31:30;88.15;;;18.83;;
19903;SDS011;10114;50.970;4.962;2022-12-17T16:33:56;154.93;;;22.23;;
19903;SDS011;10114;50.970;4.962;2022-12-17T16:36:22;121.35;;;22.05;;
19903;SDS011;10114;50.970;4.962;2022-12-17T16:38:49;84.18;;;19.67;;
19903;SDS011;10114;50.970;4.962;2022-12-17T16:41:16;114.35;;;21.35;;
19903;SDS011;10114;50.970;4.962;2022-12-17T16:43:42;126.00;;;21.38;;
19903;SDS011;10114;50.970;4.962;2022-12-17T16:46:30;68.63;;;19.27;;
19903;SDS011;10114;50.970;4.962;2022-12-17T16:48:55;181.32;;;22.75;;
19903;SDS011;10114;50.970;4.962;2022-12-17T16:51:22;158.50;;;22.58;;
19903;SDS011;10114;50.970;4.962;2022-12-17T16:53:48;192.50;;;23.88;;
19903;SDS011;10114;50.970;4.962;2022-12-17T16:56:15;155.40;;;24.08;;
19903;SDS011;10114;50.970;4.962;2022-12-17T16:58:41;92.57;;;18.42;;
19903;SDS011;10114;50.970;4.962;2022-12-17T17:01:07;129.77;;;21.67;;
19903;SDS011;10114;50.970;4.962;2022-12-17T17:03:36;134.32;;;21.95;;
19903;SDS011;10114;50.970;4.962;2022-12-17T17:06:02;90.95;;;19.40;;
19903;SDS011;10114;50.970;4.962;2022-12-17T17:08:29;135.05;;;21.75;;